Time;durP1;ratioP1;P1;durP2;ratioP2;P2;SDS_P1;SDS_P2;PMS_P1;PMS_P2;Temp;Humidity;BMP_temperature;BMP_pressure;BME280_temperature;BME280_humidity;BME280_pressure;Samples;Min_cycle;Max_cycle;Signal;HPM_P1;HPM_P2
2022/09/03 00:02:05;;;;;;;;;;;;;;;26.42;nan;100497.69;5014165;28;1902;-45
2022/09/03 00:05:04;;;;;;;;;;;;;;;26.43;nan;100505.56;5014592;28;1328;-44
2022/09/03 00:08:08;;;;;;;;;;;;;;;26.41;nan;100502.22;5013318;28;1057;-44
2022/09/03 00:10:54;;;;;;;;;;;;;;;26.43;nan;100496.72;5013802;28;1272;-44
2022/09/03 00:14:05;;;;;;;;;;;;;;;26.37;nan;100506.16;5014004;28;1225;-45
2022/09/03 00:16:50;;;;;;;;;;;;;;;26.37;nan;100506.16;5013189;28;1004;-45
2022/09/03 00:19:41;;;;;;;;;;;;;;;26.30;nan;100502.34;5016528;28;1748;-45
2022/09/03 00:23:11;;;;;;;;;;;;;;;26.25;nan;100514.44;5018891;28;655;-44
2022/09/03 00:26:04;;;;;;;;;;;;;;;26.20;nan;100512.22;5014100;28;1269;-44
2022/09/03 00:28:53;;;;;;;;;;;;;;;26.15;nan;100511.75;5014094;28;1356;-43
2022/09/03 00:31:46;;;;;;;;;;;;;;;26.11;nan;100509.50;5026079;28;829;-35
2022/09/03 00:34:50;;;;;;;;;;;;;;;26.10;nan;100516.66;5012629;28;1626;-35
2022/09/03 00:37:35;;;;;;;;;;;;;;;26.13;nan;100519.03;5014407;28;648;-36
2022/09/03 00:40:45;;;;;;;;;;;;;;;26.08;nan;100510.63;5013882;28;1901;-36
2022/09/03 00:44:08;;;;;;;;;;;;;;;26.02;nan;100506.66;5014492;28;1221;-35
2022/09/03 00:47:42;;;;;;;;;;;;;;;26.05;nan;100506.38;4984984;28;1255;-33
2022/09/03 00:50:39;;;;;;;;;;;;;;;25.94;nan;100513.69;5000091;28;1394;-34
2022/09/03 00:53:41;;;;;;;;;;;;;;;25.84;nan;100507.53;5013829;28;533;-35
2022/09/03 00:56:39;;;;;;;;;;;;;;;25.93;nan;100504.84;5014277;28;1083;-33
2022/09/03 01:03:11;;;;;;;;;;;;;;;25.92;nan;100499.66;5012939;28;1066;-34
2022/09/03 01:06:02;;;;;;;;;;;;;;;25.86;nan;100502.88;5026321;28;1253;-35
2022/09/03 01:12:43;;;;;;;;;;;;;;;25.82;nan;100496.13;5013858;28;981;-36
2022/09/03 01:15:46;;;;;;;;;;;;;;;25.90;nan;100496.28;5024439;28;1308;-35
2022/09/03 01:18:45;;;;;;;;;;;;;;;25.85;nan;100498.50;5013537;28;923;-34
2022/09/03 01:21:33;;;;;;;;;;;;;;;25.86;nan;100500.22;5026333;28;1910;-35
2022/09/03 01:24:27;;;;;;;;;;;;;;;25.80;nan;100500.78;5013305;28;1237;-35
2022/09/03 01:27:21;;;;;;;;;;;;;;;25.79;nan;100505.25;5013025;28;680;-36
2022/09/03 01:30:16;;;;;;;;;;;;;;;25.79;nan;100504.41;5016620;28;1209;-36
2022/09/03 01:33:24;;;;;;;;;;;;;;;25.88;nan;100507.09;5017048;28;1120;-36
2022/09/03 01:36:15;;;;;;;;;;;;;;;25.87;nan;100493.91;5017208;28;695;-36
2022/09/03 01:39:03;;;;;;;;;;;;;;;25.83;nan;100493.34;5017164;28;1311;-36
2022/09/03 01:42:17;;;;;;;;;;;;;;;25.68;nan;100497.38;5016435;28;1879;-36
2022/09/03 01:45:17;;;;;;;;;;;;;;;25.70;nan;100490.06;5016052;28;1296;-35
2022/09/03 01:48:21;;;;;;;;;;;;;;;25.69;nan;100498.19;5015711;28;1058;-35
2022/09/03 01:51:10;;;;;;;;;;;;;;;25.65;nan;100492.31;5016356;28;648;-36
2022/09/03 01:54:08;;;;;;;;;;;;;;;25.68;nan;100491.19;5015601;28;1331;-35
2022/09/03 01:57:07;;;;;;;;;;;;;;;25.68;nan;100500.06;5016391;28;629;-35
2022/09/03 01:59:58;;;;;;;;;;;;;;;25.59;nan;100495.53;5016784;28;1327;-35
2022/09/03 02:02:47;;;;;;;;;;;;;;;25.58;nan;100495.66;5016337;28;947;-35
2022/09/03 02:05:34;;;;;;;;;;;;;;;25.60;nan;100491.03;5029113;28;1272;-35
2022/09/03 02:08:19;;;;;;;;;;;;;;;25.58;nan;100501.00;5016115;28;959;-35
2022/09/03 02:11:07;;;;;;;;;;;;;;;25.47;nan;100504.59;5016419;28;707;-35
2022/09/03 02:13:56;;;;;;;;;;;;;;;25.39;nan;100501.75;5015847;28;1469;-36
2022/09/03 02:16:43;;;;;;;;;;;;;;;25.34;nan;100491.50;5015712;28;774;-36
2022/09/03 02:19:30;;;;;;;;;;;;;;;25.37;nan;100487.72;5015064;28;1355;-35
2022/09/03 02:22:16;;;;;;;;;;;;;;;25.35;nan;100489.69;5015744;28;1971;-34
2022/09/03 02:25:01;;;;;;;;;;;;;;;25.33;nan;100487.16;5016075;28;1236;-37
2022/09/03 02:27:48;;;;;;;;;;;;;;;25.33;nan;100480.97;5015694;28;1113;-35
2022/09/03 02:30:33;;;;;;;;;;;;;;;25.31;nan;100473.13;5015427;28;1340;-35
2022/09/03 02:33:18;;;;;;;;;;;;;;;25.33;nan;100465.81;5015586;28;1030;-35
2022/09/03 02:36:05;;;;;;;;;;;;;;;25.25;nan;100463.00;5015401;28;728;-36
2022/09/03 02:38:51;;;;;;;;;;;;;;;25.23;nan;100472.13;5015528;28;1256;-37
2022/09/03 02:41:36;;;;;;;;;;;;;;;25.18;nan;100467.19;5015429;28;1961;-35
2022/09/03 02:44:34;;;;;;;;;;;;;;;25.14;nan;100457.75;5015385;28;1343;-36
2022/09/03 02:47:19;;;;;;;;;;;;;;;25.09;nan;100457.31;5015281;28;1154;-37
2022/09/03 02:50:05;;;;;;;;;;;;;;;25.16;nan;100469.16;5015131;28;1261;-36
2022/09/03 02:52:51;;;;;;;;;;;;;;;25.13;nan;100465.91;5014918;28;1034;-35
2022/09/03 02:55:36;;;;;;;;;;;;;;;25.10;nan;100456.38;5015057;28;1253;-35
2022/09/03 02:58:21;;;;;;;;;;;;;;;25.10;nan;100469.69;5027723;28;1040;-37
2022/09/03 03:01:06;;;;;;;;;;;;;;;25.16;nan;100458.50;5014875;28;1957;-36
2022/09/03 03:03:52;;;;;;;;;;;;;;;25.08;nan;100428.97;5015134;28;1299;-34
2022/09/03 03:06:37;;;;;;;;;;;;;;;25.02;nan;100429.53;5014087;28;637;-36
2022/09/03 03:09:22;;;;;;;;;;;;;;;25.04;nan;100427.59;5015324;28;1189;-36
2022/09/03 03:12:09;;;;;;;;;;;;;;;25.02;nan;100435.69;5015094;28;582;-36
2022/09/03 03:14:54;;;;;;;;;;;;;;;25.08;nan;100449.50;5015234;28;1243;-32
2022/09/03 03:17:39;;;;;;;;;;;;;;;25.01;nan;100438.53;5014835;28;625;-37
2022/09/03 03:20:25;;;;;;;;;;;;;;;25.09;nan;100438.69;5014653;28;1256;-35
2022/09/03 03:23:10;;;;;;;;;;;;;;;25.06;nan;100428.28;5014721;28;1008;-34
2022/09/03 03:25:59;;;;;;;;;;;;;;;25.04;nan;100442.72;5014379;28;1252;-35
2022/09/03 03:28:47;;;;;;;;;;;;;;;25.07;nan;100458.44;5014473;28;1574;-34
2022/09/03 03:31:33;;;;;;;;;;;;;;;25.14;nan;100496.91;5014788;28;720;-35
2022/09/03 03:34:18;;;;;;;;;;;;;;;25.14;nan;100497.75;5014832;28;1315;-35
2022/09/03 03:37:04;;;;;;;;;;;;;;;25.07;nan;100466.44;5014481;28;708;-36
2022/09/03 03:39:50;;;;;;;;;;;;;;;25.10;nan;100460.84;5014978;28;1304;-35
2022/09/03 03:42:35;;;;;;;;;;;;;;;25.16;nan;100474.47;5013816;28;1970;-35
2022/09/03 03:45:20;;;;;;;;;;;;;;;25.22;nan;100473.94;5013972;28;1292;-35
2022/09/03 03:48:06;;;;;;;;;;;;;;;25.21;nan;100471.38;5014248;28;1044;-36
2022/09/03 03:50:51;;;;;;;;;;;;;;;25.27;nan;100479.69;5013939;28;1264;-36
2022/09/03 03:53:37;;;;;;;;;;;;;;;25.22;nan;100484.59;5013914;28;1130;-36
2022/09/03 03:56:24;;;;;;;;;;;;;;;25.20;nan;100478.53;5013593;28;671;-36
2022/09/03 03:59:09;;;;;;;;;;;;;;;25.26;nan;100461.19;5014698;28;1327;-36
2022/09/03 04:01:54;;;;;;;;;;;;;;;25.27;nan;100455.72;5013137;28;1968;-35
2022/09/03 04:04:40;;;;;;;;;;;;;;;25.32;nan;100464.13;5014526;28;1256;-36
2022/09/03 04:07:25;;;;;;;;;;;;;;;25.38;nan;100478.75;5014342;28;716;-35
2022/09/03 04:10:11;;;;;;;;;;;;;;;25.37;nan;100475.25;5013909;28;1249;-34
2022/09/03 04:12:56;;;;;;;;;;;;;;;25.39;nan;100470.59;5013928;28;1034;-35
2022/09/03 04:15:41;;;;;;;;;;;;;;;25.39;nan;100465.28;5013549;28;1217;-34
2022/09/03 04:18:27;;;;;;;;;;;;;;;25.34;nan;100466.66;5013835;28;1030;-36
2022/09/03 04:21:13;;;;;;;;;;;;;;;25.39;nan;100462.59;5013406;28;1906;-37
2022/09/03 04:23:59;;;;;;;;;;;;;;;25.41;nan;100463.31;5014040;28;1252;-34
2022/09/03 04:26:44;;;;;;;;;;;;;;;25.42;nan;100474.81;5012794;28;613;-35
2022/09/03 04:29:30;;;;;;;;;;;;;;;25.43;nan;100488.03;5012674;28;1248;-35
2022/09/03 04:35:22;;;;;;;;;;;;;;;25.50;nan;100499.03;5013575;28;1173;-35
2022/09/03 04:38:07;;;;;;;;;;;;;;;25.49;nan;100497.34;5015574;28;1776;-37
2022/09/03 04:40:53;;;;;;;;;;;;;;;25.49;nan;100506.19;5023144;28;1906;-36
2022/09/03 04:43:38;;;;;;;;;;;;;;;25.49;nan;100498.19;5033252;28;1157;-36
2022/09/03 04:46:25;;;;;;;;;;;;;;;25.53;nan;100498.75;5033110;28;1485;-36
2022/09/03 04:49:11;;;;;;;;;;;;;;;25.54;nan;100493.28;5020581;28;1363;-36
2022/09/03 04:51:56;;;;;;;;;;;;;;;25.52;nan;100497.06;5013328;28;614;-36
2022/09/03 04:54:42;;;;;;;;;;;;;;;25.51;nan;100488.22;5013980;28;1346;-35
2022/09/03 04:57:33;;;;;;;;;;;;;;;25.47;nan;100484.09;5013782;28;625;-35
2022/09/03 05:00:19;;;;;;;;;;;;;;;25.45;nan;100483.41;5017795;28;1390;-36
2022/09/03 05:03:04;;;;;;;;;;;;;;;25.45;nan;100478.06;5035288;28;1906;-35
2022/09/03 05:05:55;;;;;;;;;;;;;;;25.43;nan;100477.38;5036897;28;1278;-36
2022/09/03 05:08:40;;;;;;;;;;;;;;;25.35;nan;100485.19;5037334;28;1244;-36
2022/09/03 05:11:27;;;;;;;;;;;;;;;25.46;nan;100489.56;5037098;28;605;-35
2022/09/03 05:14:12;;;;;;;;;;;;;;;25.47;nan;100480.59;5036903;28;1245;-35
2022/09/03 05:16:57;;;;;;;;;;;;;;;25.43;nan;100465.84;5036572;28;774;-35
2022/09/03 05:19:42;;;;;;;;;;;;;;;25.37;nan;100471.72;5037023;28;1233;-35
2022/09/03 05:22:27;;;;;;;;;;;;;;;25.33;nan;100465.81;5035566;28;1907;-35
2022/09/03 05:25:13;;;;;;;;;;;;;;;25.39;nan;100459.94;5026412;28;1230;-35
2022/09/03 05:27:58;;;;;;;;;;;;;;;25.41;nan;100465.16;5025613;28;1744;-35
2022/09/03 05:30:43;;;;;;;;;;;;;;;25.44;nan;100473.69;5028685;28;1280;-35
2022/09/03 05:33:28;;;;;;;;;;;;;;;25.46;nan;100465.56;5016810;28;1039;-35
2022/09/03 05:36:15;;;;;;;;;;;;;;;25.42;nan;100469.50;5016849;28;581;-35
2022/09/03 05:39:00;;;;;;;;;;;;;;;25.41;nan;100478.50;5016852;28;1247;-35
2022/09/03 05:41:45;;;;;;;;;;;;;;;25.44;nan;100484.38;5016726;28;1968;-36
2022/09/03 05:44:30;;;;;;;;;;;;;;;25.44;nan;100491.53;5016811;28;1268;-35
2022/09/03 05:47:16;;;;;;;;;;;;;;;25.46;nan;100494.91;5016633;28;1450;-36
2022/09/03 05:50:01;;;;;;;;;;;;;;;25.44;nan;100492.38;5019681;28;1618;-34
2022/09/03 05:52:46;;;;;;;;;;;;;;;25.43;nan;100480.03;5026709;28;1044;-36
2022/09/03 05:55:32;;;;;;;;;;;;;;;25.44;nan;100486.22;5029735;28;1252;-36
2022/09/03 05:58:18;;;;;;;;;;;;;;;25.36;nan;100497.53;5035639;28;1046;-36
2022/09/03 06:01:30;;;;;;;;;;;;;;;25.30;nan;100492.75;5035618;28;1280;-35
2022/09/03 06:04:15;;;;;;;;;;;;;;;25.30;nan;100487.41;5023275;28;1221;-35
2022/09/03 06:07:01;;;;;;;;;;;;;;;25.30;nan;100484.75;5016205;28;637;-35
2022/09/03 06:09:46;;;;;;;;;;;;;;;25.30;nan;100491.91;5016682;28;1209;-36
2022/09/03 06:12:31;;;;;;;;;;;;;;;25.24;nan;100495.97;5016156;28;637;-36
2022/09/03 06:15:16;;;;;;;;;;;;;;;25.19;nan;100497.34;5015185;28;1328;-35
2022/09/03 06:18:01;;;;;;;;;;;;;;;25.16;nan;100500.28;5015980;28;1052;-36
2022/09/03 06:20:57;;;;;;;;;;;;;;;25.20;nan;100497.19;5015971;28;1356;-36
2022/09/03 06:23:42;;;;;;;;;;;;;;;25.16;nan;100486.97;5015775;28;1269;-34
2022/09/03 06:26:30;;;;;;;;;;;;;;;25.15;nan;100485.25;5015758;28;625;-35
2022/09/03 06:29:17;;;;;;;;;;;;;;;25.12;nan;100499.69;5015909;28;1221;-36
2022/09/03 06:32:03;;;;;;;;;;;;;;;25.05;nan;100500.38;5015525;28;637;-36
2022/09/03 06:34:49;;;;;;;;;;;;;;;24.97;nan;100507.22;5016082;28;1189;-36
2022/09/03 06:37:38;;;;;;;;;;;;;;;24.95;nan;100519.84;5015704;28;637;-35
2022/09/03 06:40:25;;;;;;;;;;;;;;;24.97;nan;100517.88;5015393;28;1214;-35
2022/09/03 06:43:10;;;;;;;;;;;;;;;24.89;nan;100522.19;5015446;28;1911;-35
2022/09/03 06:45:57;;;;;;;;;;;;;;;24.93;nan;100520.91;5015100;28;1459;-34
2022/09/03 06:48:42;;;;;;;;;;;;;;;24.95;nan;100519.00;5015129;28;1231;-35
2022/09/03 06:51:30;;;;;;;;;;;;;;;24.92;nan;100516.59;5028500;28;546;-36
2022/09/03 06:54:16;;;;;;;;;;;;;;;24.90;nan;100521.19;5014821;28;1327;-35
2022/09/03 06:57:02;;;;;;;;;;;;;;;24.91;nan;100530.88;5015469;28;567;-35
2022/09/03 06:59:48;;;;;;;;;;;;;;;24.92;nan;100528.09;5015480;28;1307;-36
2022/09/03 07:02:33;;;;;;;;;;;;;;;24.94;nan;100533.28;5015045;28;1972;-36
2022/09/03 07:05:19;;;;;;;;;;;;;;;25.01;nan;100534.44;5024019;28;1452;-35
2022/09/03 07:08:04;;;;;;;;;;;;;;;25.11;nan;100537.97;5033272;28;1132;-35
2022/09/03 07:10:50;;;;;;;;;;;;;;;25.08;nan;100535.59;5017775;28;1260;-35
2022/09/03 07:13:35;;;;;;;;;;;;;;;25.08;nan;100529.44;5014584;28;1195;-35
2022/09/03 07:16:22;;;;;;;;;;;;;;;25.00;nan;100538.06;5014461;28;625;-36
2022/09/03 07:19:08;;;;;;;;;;;;;;;25.09;nan;100537.28;5014641;28;1268;-35
2022/09/03 07:21:53;;;;;;;;;;;;;;;25.07;nan;100533.91;5014222;28;1906;-37
2022/09/03 07:24:38;;;;;;;;;;;;;;;25.12;nan;100545.00;5014083;28;1240;-37
2022/09/03 07:27:23;;;;;;;;;;;;;;;25.18;nan;100538.31;5013314;28;645;-36
2022/09/03 07:30:09;;;;;;;;;;;;;;;25.22;nan;100543.25;5013890;28;1245;-35
2022/09/03 07:32:54;;;;;;;;;;;;;;;25.24;nan;100540.44;5013388;28;1074;-36
2022/09/03 07:35:40;;;;;;;;;;;;;;;25.23;nan;100542.25;5013891;28;1253;-36
2022/09/03 07:38:25;;;;;;;;;;;;;;;25.21;nan;100546.03;5014484;28;1050;-36
2022/09/03 07:41:12;;;;;;;;;;;;;;;25.21;nan;100546.03;5013588;28;1060;-35
2022/09/03 07:44:04;;;;;;;;;;;;;;;25.23;nan;100539.59;5014190;28;1926;-35
2022/09/03 07:46:49;;;;;;;;;;;;;;;25.29;nan;100539.03;5013977;28;1483;-35
2022/09/03 07:49:36;;;;;;;;;;;;;;;25.28;nan;100541.84;5019576;28;1802;-36
2022/09/03 07:52:21;;;;;;;;;;;;;;;25.33;nan;100532.47;5013884;28;653;-34
2022/09/03 07:55:08;;;;;;;;;;;;;;;25.44;nan;100542.22;5022812;28;1261;-34
2022/09/03 07:57:58;;;;;;;;;;;;;;;25.44;nan;100539.53;5013777;28;1050;-36
2022/09/03 08:00:43;;;;;;;;;;;;;;;25.46;nan;100538.44;5014990;28;1367;-35
2022/09/03 08:03:28;;;;;;;;;;;;;;;25.45;nan;100541.22;5029900;28;1910;-34
2022/09/03 08:06:15;;;;;;;;;;;;;;;25.56;nan;100543.81;5011663;28;1048;-33
2022/09/03 08:09:02;;;;;;;;;;;;;;;25.64;nan;100541.31;5022966;28;1276;-33
2022/09/03 08:11:49;;;;;;;;;;;;;;;25.65;nan;100540.34;5023325;28;671;-37
2022/09/03 08:14:34;;;;;;;;;;;;;;;25.68;nan;100540.06;5024804;28;1264;-37
2022/09/03 08:17:20;;;;;;;;;;;;;;;25.69;nan;100547.06;5022407;28;722;-36
2022/09/03 08:20:06;;;;;;;;;;;;;;;25.76;nan;100548.22;5022365;28;1323;-36
2022/09/03 08:22:51;;;;;;;;;;;;;;;25.84;nan;100551.03;5012142;28;1990;-37
2022/09/03 08:25:37;;;;;;;;;;;;;;;25.86;nan;100557.09;5011958;28;1280;-36
2022/09/03 08:28:22;;;;;;;;;;;;;;;25.89;nan;100553.31;5012568;28;1030;-34
2022/09/03 08:31:15;;;;;;;;;;;;;;;25.93;nan;100554.72;5011895;28;1005;-35
2022/09/03 08:34:05;;;;;;;;;;;;;;;25.97;nan;100550.78;5012110;28;1252;-33
2022/09/03 08:36:51;;;;;;;;;;;;;;;25.99;nan;100549.66;5019589;28;1300;-36
2022/09/03 08:39:37;;;;;;;;;;;;;;;26.02;nan;100551.22;5021290;28;1288;-33
2022/09/03 08:42:45;;;;;;;;;;;;;;;26.06;nan;100556.13;5030427;28;1902;-36
2022/09/03 08:45:32;;;;;;;;;;;;;;;26.11;nan;100553.06;5017851;28;1348;-34
2022/09/03 08:48:20;;;;;;;;;;;;;;;26.15;nan;100548.25;5012445;28;1007;-34
2022/09/03 08:51:10;;;;;;;;;;;;;;;26.15;nan;100562.50;5021398;28;1292;-36
2022/09/03 08:53:57;;;;;;;;;;;;;;;26.21;nan;100556.59;5031419;28;1360;-36
2022/09/03 08:56:44;;;;;;;;;;;;;;;26.23;nan;100557.31;5013194;28;715;-33
2022/09/03 08:59:31;;;;;;;;;;;;;;;26.23;nan;100557.31;5016517;28;1497;-34
2022/09/03 09:02:26;;;;;;;;;;;;;;;26.31;nan;100565.47;5028624;28;1968;-34
2022/09/03 09:05:23;;;;;;;;;;;;;;;26.35;nan;100572.22;5023251;28;1289;-33
2022/09/03 09:08:38;;;;;;;;;;;;;;;26.43;nan;100580.34;5031695;28;1029;-34
2022/09/03 09:11:29;;;;;;;;;;;;;;;26.46;nan;100585.41;5012871;28;1141;-35
2022/09/03 09:14:33;;;;;;;;;;;;;;;26.49;nan;100584.28;5012994;28;1308;-33
2022/09/03 09:17:18;;;;;;;;;;;;;;;26.52;nan;100587.53;5012444;28;546;-34
2022/09/03 09:20:19;;;;;;;;;;;;;;;26.53;nan;100585.69;5012733;28;1331;-33
2022/09/03 09:23:06;;;;;;;;;;;;;;;26.58;nan;100592.28;5012727;28;1973;-34
2022/09/03 09:25:53;;;;;;;;;;;;;;;26.59;nan;100596.66;5011829;28;1288;-34
2022/09/03 09:28:38;;;;;;;;;;;;;;;26.61;nan;100604.53;5013864;28;1503;-34
2022/09/03 09:31:25;;;;;;;;;;;;;;;26.60;nan;100608.16;5019866;28;639;-38
2022/09/03 09:34:10;;;;;;;;;;;;;;;26.56;nan;100602.28;5012585;28;1403;-35
2022/09/03 09:36:55;;;;;;;;;;;;;;;26.56;nan;100610.31;5013760;28;1276;-37
2022/09/03 09:39:52;;;;;;;;;;;;;;;26.55;nan;100605.94;5030009;28;1342;-37
2022/09/03 09:42:37;;;;;;;;;;;;;;;26.55;nan;100610.44;5031660;28;1977;-44
2022/09/03 09:45:39;;;;;;;;;;;;;;;26.54;nan;100611.41;5027001;28;1351;-44
2022/09/03 09:48:30;;;;;;;;;;;;;;;26.56;nan;100618.31;5024443;28;1822;-44
2022/09/03 09:51:20;;;;;;;;;;;;;;;26.58;nan;100611.00;5030298;28;1478;-45
2022/09/03 09:54:17;;;;;;;;;;;;;;;26.60;nan;100610.84;5031267;28;1274;-46
2022/09/03 09:57:05;;;;;;;;;;;;;;;26.58;nan;100619.00;5032243;28;581;-44
2022/09/03 10:00:12;;;;;;;;;;;;;;;26.56;nan;100612.97;5034736;28;1370;-45
2022/09/03 10:02:57;;;;;;;;;;;;;;;26.55;nan;100611.28;5034031;28;1902;-46
2022/09/03 10:05:43;;;;;;;;;;;;;;;26.56;nan;100607.63;5033483;28;1367;-46
2022/09/03 10:08:28;;;;;;;;;;;;;;;26.59;nan;100614.50;5032961;28;1124;-45
2022/09/03 10:11:15;;;;;;;;;;;;;;;26.61;nan;100615.22;5032879;28;664;-45
2022/09/03 10:14:02;;;;;;;;;;;;;;;26.59;nan;100609.16;5033749;28;1243;-46
2022/09/03 10:16:53;;;;;;;;;;;;;;;26.61;nan;100610.72;5033159;28;754;-46
2022/09/03 10:20:25;;;;;;;;;;;;;;;26.60;nan;100601.00;5033164;28;1496;-44
2022/09/03 10:22:53;;;;;;;;;;;;;;;26.61;nan;100604.53;5033564;28;1973;-46
2022/09/03 10:25:49;;;;;;;;;;;;;;;26.61;nan;100601.84;5033722;28;1268;-46
2022/09/03 10:28:41;;;;;;;;;;;;;;;26.59;nan;100596.66;5034978;28;1116;-44
2022/09/03 10:31:39;;;;;;;;;;;;;;;26.60;nan;100593.00;5035141;28;696;-45
2022/09/03 10:34:35;;;;;;;;;;;;;;;26.60;nan;100593.00;5035593;28;1315;-45
2022/09/03 10:37:24;;;;;;;;;;;;;;;26.61;nan;100593.84;5034899;28;651;-46
2022/09/03 10:40:14;;;;;;;;;;;;;;;26.61;nan;100592.00;5033810;28;1355;-46
2022/09/03 10:43:09;;;;;;;;;;;;;;;26.63;nan;100599.06;5034798;28;1898;-45
2022/09/03 10:46:02;;;;;;;;;;;;;;;26.63;nan;100603.38;5035227;28;1281;-45
2022/09/03 10:48:53;;;;;;;;;;;;;;;26.65;nan;100599.75;5034956;28;1339;-45
2022/09/03 10:51:45;;;;;;;;;;;;;;;26.66;nan;100606.78;5034317;28;1051;-46
2022/09/03 10:54:34;;;;;;;;;;;;;;;26.66;nan;100602.25;5035027;28;1260;-44
2022/09/03 10:57:25;;;;;;;;;;;;;;;26.66;nan;100596.09;5034684;28;629;-46
2022/09/03 11:00:14;;;;;;;;;;;;;;;26.68;nan;100604.81;5034350;28;1287;-45
2022/09/03 11:03:02;;;;;;;;;;;;;;;26.69;nan;100603.84;5034340;28;1959;-45
2022/09/03 11:05:50;;;;;;;;;;;;;;;26.69;nan;100609.16;5034862;28;1253;-45
2022/09/03 11:08:45;;;;;;;;;;;;;;;26.71;nan;100599.19;5034684;28;890;-45
2022/09/03 11:11:33;;;;;;;;;;;;;;;26.71;nan;100609.88;5034486;28;664;-44
2022/09/03 11:14:39;;;;;;;;;;;;;;;26.71;nan;100607.19;5034509;28;1260;-45
2022/09/03 11:17:31;;;;;;;;;;;;;;;26.73;nan;100597.19;5034519;28;1015;-45
2022/09/03 11:20:20;;;;;;;;;;;;;;;26.73;nan;100597.19;5035115;28;1239;-45
2022/09/03 11:23:07;;;;;;;;;;;;;;;26.73;nan;100603.38;5034370;28;1910;-45
2022/09/03 11:25:53;;;;;;;;;;;;;;;26.75;nan;100600.59;5034165;28;1304;-45
2022/09/03 11:28:44;;;;;;;;;;;;;;;26.76;nan;100600.44;5033810;28;924;-46
2022/09/03 11:31:30;;;;;;;;;;;;;;;26.76;nan;100602.25;5033886;28;625;-45
2022/09/03 11:34:26;;;;;;;;;;;;;;;26.75;nan;100603.25;5034080;28;1295;-45
2022/09/03 11:37:26;;;;;;;;;;;;;;;26.75;nan;100611.28;5033916;28;657;-45
2022/09/03 11:40:17;;;;;;;;;;;;;;;26.75;nan;100605.94;5033814;28;1298;-45
2022/09/03 11:43:21;;;;;;;;;;;;;;;26.76;nan;100602.25;5034004;28;1907;-47
2022/09/03 11:46:12;;;;;;;;;;;;;;;26.77;nan;100598.59;5033722;28;1432;-45
2022/09/03 11:49:12;;;;;;;;;;;;;;;26.76;nan;100599.59;5033819;28;1233;-45
2022/09/03 11:52:02;;;;;;;;;;;;;;;26.76;nan;100596.91;5033753;28;609;-45
2022/09/03 11:54:47;;;;;;;;;;;;;;;26.76;nan;100599.59;5032989;28;1241;-46
2022/09/03 11:57:40;;;;;;;;;;;;;;;26.76;nan;100596.91;5033908;28;671;-45
2022/09/03 12:00:25;;;;;;;;;;;;;;;26.77;nan;100585.25;5033595;28;1213;-46
2022/09/03 12:03:14;;;;;;;;;;;;;;;26.77;nan;100585.25;5034128;28;1906;-36
2022/09/03 12:06:18;;;;;;;;;;;;;;;26.77;nan;100594.13;5033217;28;1371;-36
2022/09/03 12:09:22;;;;;;;;;;;;;;;26.79;nan;100588.59;5033705;28;1371;-36
2022/09/03 12:12:07;;;;;;;;;;;;;;;26.79;nan;100584.13;5032661;28;648;-36
2022/09/03 12:15:01;;;;;;;;;;;;;;;26.80;nan;100587.66;5033287;28;1236;-36
2022/09/03 12:17:48;;;;;;;;;;;;;;;26.79;nan;100573.41;5033380;28;1104;-37
2022/09/03 12:20:33;;;;;;;;;;;;;;;26.80;nan;100579.66;5032900;28;1256;-36
2022/09/03 12:23:27;;;;;;;;;;;;;;;26.80;nan;100585.00;5032792;28;1910;-36
2022/09/03 12:26:22;;;;;;;;;;;;;;;26.81;nan;100584.84;5032949;28;657;-37
2022/09/03 12:29:24;;;;;;;;;;;;;;;26.82;nan;100591.88;5033255;28;1232;-36
2022/09/03 12:32:12;;;;;;;;;;;;;;;26.83;nan;100587.38;5033336;28;688;-37
2022/09/03 12:34:57;;;;;;;;;;;;;;;26.83;nan;100593.56;5033640;28;1256;-37
2022/09/03 12:37:44;;;;;;;;;;;;;;;26.83;nan;100576.69;5032985;28;920;-36
2022/09/03 12:40:50;;;;;;;;;;;;;;;26.82;nan;100575.84;5033418;28;1277;-36
2022/09/03 12:43:59;;;;;;;;;;;;;;;26.83;nan;100576.69;5032979;28;1902;-36
2022/09/03 12:46:45;;;;;;;;;;;;;;;26.83;nan;100579.34;5032752;28;1494;-36
2022/09/03 12:49:38;;;;;;;;;;;;;;;26.83;nan;100574.88;5032969;28;1217;-37
2022/09/03 12:52:29;;;;;;;;;;;;;;;26.84;nan;100563.16;5031650;28;669;-36
2022/09/03 12:55:34;;;;;;;;;;;;;;;26.84;nan;100570.38;5031466;28;1328;-36
2022/09/03 12:58:24;;;;;;;;;;;;;;;26.86;nan;100568.38;5033041;28;942;-37
2022/09/03 13:01:18;;;;;;;;;;;;;;;26.87;nan;100570.09;5032790;28;708;-36
2022/09/03 13:04:07;;;;;;;;;;;;;;;26.87;nan;100560.22;5032816;28;1981;-36
2022/09/03 13:07:12;;;;;;;;;;;;;;;26.87;nan;100551.38;5032763;28;644;-36
2022/09/03 13:10:03;;;;;;;;;;;;;;;26.86;nan;100555.88;5033023;28;1322;-36
2022/09/03 13:12:49;;;;;;;;;;;;;;;26.88;nan;100563.72;5032414;28;1032;-36
2022/09/03 13:15:37;;;;;;;;;;;;;;;26.87;nan;100556.72;5031275;28;1191;-35
2022/09/03 13:18:28;;;;;;;;;;;;;;;26.88;nan;100558.38;5032682;28;927;-36
2022/09/03 13:21:26;;;;;;;;;;;;;;;26.89;nan;100552.06;5032207;28;687;-35
2022/09/03 13:24:20;;;;;;;;;;;;;;;26.89;nan;100549.38;5033310;28;1910;-35
2022/09/03 13:27:24;;;;;;;;;;;;;;;26.89;nan;100536.03;5022440;28;1732;-35
2022/09/03 13:30:16;;;;;;;;;;;;;;;26.92;nan;100536.59;5029715;28;1308;-34
2022/09/03 13:33:07;;;;;;;;;;;;;;;26.95;nan;100538.97;5025063;28;1606;-33
2022/09/03 13:35:59;;;;;;;;;;;;;;;26.99;nan;100542.19;5033561;28;1292;-33
2022/09/03 13:38:57;;;;;;;;;;;;;;;26.96;nan;100540.63;5024393;28;1268;-34
2022/09/03 13:42:04;;;;;;;;;;;;;;;26.96;nan;100535.28;5034278;28;1101;-34
2022/09/03 13:44:54;;;;;;;;;;;;;;;26.97;nan;100531.63;5033651;28;1981;-34
2022/09/03 13:51:03;;;;;;;;;;;;;;;27.01;nan;100521.50;5029240;28;1371;-32
2022/09/03 13:53:59;;;;;;;;;;;;;;;27.06;nan;100524.56;5029643;28;1264;-32
2022/09/03 13:56:59;;;;;;;;;;;;;;;27.06;nan;100524.56;5033111;28;605;-33
2022/09/03 13:59:45;;;;;;;;;;;;;;;27.08;nan;100523.41;5032774;28;1200;-33
2022/09/03 14:02:38;;;;;;;;;;;;;;;27.11;nan;100519.63;5027093;28;869;-34
2022/09/03 14:05:42;;;;;;;;;;;;;;;27.15;nan;100519.19;5033564;28;1906;-34
2022/09/03 14:08:52;;;;;;;;;;;;;;;27.17;nan;100518.22;5028133;28;1116;-33
2022/09/03 14:11:55;;;;;;;;;;;;;;;27.18;nan;100511.88;5029683;28;1041;-34
2022/09/03 14:14:51;;;;;;;;;;;;;;;27.18;nan;100510.03;5028277;28;1355;-34
2022/09/03 14:17:47;;;;;;;;;;;;;;;27.18;nan;100507.34;5030837;28;921;-34
2022/09/03 14:20:43;;;;;;;;;;;;;;;27.19;nan;100503.69;5033153;28;1272;-34
2022/09/03 14:23:37;;;;;;;;;;;;;;;27.19;nan;100509.03;5032877;28;1980;-35
2022/09/03 14:26:28;;;;;;;;;;;;;;;27.20;nan;100501.88;5028329;28;1052;-35
2022/09/03 14:29:27;;;;;;;;;;;;;;;27.21;nan;100501.72;5028660;28;1376;-35
2022/09/03 14:32:21;;;;;;;;;;;;;;;27.21;nan;100499.03;5026556;28;853;-35
2022/09/03 14:35:28;;;;;;;;;;;;;;;27.22;nan;100497.22;5026420;28;1447;-34
2022/09/03 14:38:19;;;;;;;;;;;;;;;27.22;nan;100516.78;5023969;28;1148;-34
2022/09/03 14:41:27;;;;;;;;;;;;;;;27.25;nan;100507.59;5031522;28;1314;-33
2022/09/03 14:44:53;;;;;;;;;;;;;;;27.26;nan;100501.28;5029976;28;1921;-34
2022/09/03 14:47:42;;;;;;;;;;;;;;;27.22;nan;100500.72;5027363;28;1216;-35
2022/09/03 14:51:01;;;;;;;;;;;;;;;27.30;nan;100508.84;5028447;28;1245;-38
2022/09/03 14:53:46;;;;;;;;;;;;;;;27.30;nan;100514.19;5027462;28;1276;-36
2022/09/03 14:56:50;;;;;;;;;;;;;;;27.30;nan;100510.69;5033163;28;637;-38
2022/09/03 14:59:44;;;;;;;;;;;;;;;27.27;nan;100509.13;5031861;28;1291;-38
2022/09/03 15:02:33;;;;;;;;;;;;;;;27.25;nan;100513.81;5012844;28;889;-38
2022/09/03 15:05:21;;;;;;;;;;;;;;;27.26;nan;100509.31;5032265;28;1975;-38
2022/09/03 15:08:23;;;;;;;;;;;;;;;27.21;nan;100501.72;5024725;28;1012;-38
2022/09/03 15:11:25;;;;;;;;;;;;;;;27.14;nan;100495.28;5031880;28;680;-38
2022/09/03 15:14:34;;;;;;;;;;;;;;;27.16;nan;100495.97;5030809;28;1288;-39
2022/09/03 15:17:38;;;;;;;;;;;;;;;27.17;nan;100486.13;5031383;28;877;-38
2022/09/03 15:20:42;;;;;;;;;;;;;;;27.08;nan;100490.53;5031854;28;1392;-38
2022/09/03 15:23:43;;;;;;;;;;;;;;;27.08;nan;100502.03;5024116;28;1914;-37
2022/09/03 15:26:38;;;;;;;;;;;;;;;27.09;nan;100513.56;5030906;28;664;-40
2022/09/03 15:29:41;;;;;;;;;;;;;;;27.00;nan;100519.81;5026345;28;1353;-42
2022/09/03 15:32:46;;;;;;;;;;;;;;;26.94;nan;100525.72;5028365;28;928;-39